< Typhoon 196627 1966 Season Typhoon 196629 >
Typhoon 196628 (NO-NAME)
General InformationTrack Information on Google Maps || Disaster Info.ResourceGoogle EarthGE AnimationAtom FeedGeoJSON
Detalied Best Track (Time Zone = UTC)
Year Month Day Hour Lat. Long. Pressure (hPa) Wind (kt) Class Image Chart
1966 9 29 00 23.0 138.1 1012 0 2 -- Chart
1966 9 29 06 23.0 138.1 1010 0 2 -- Chart
1966 9 29 12 22.0 137.2 1010 0 2 -- Chart
1966 9 29 18 21.4 137.5 1010 0 2 -- Chart
1966 9 30 00 21.1 138.1 1010 0 2 -- Chart
1966 9 30 06 22.0 138.9 1010 0 2 -- Chart
1966 9 30 12 22.9 137.0 1010 0 2 -- Chart
1966 9 30 18 23.4 134.5 1010 0 2 -- Chart
1966 10 1 00 24.5 133.0 1010 0 2 -- Chart
1966 10 1 06 25.5 132.5 1010 0 2 -- Chart
1966 10 1 12 27.0 132.5 1010 0 2 -- Chart
1966 10 1 18 28.5 133.5 1008 0 2 -- Chart
1966 10 2 00 31.0 136.0 1004 0 9 -- Chart
1966 10 2 06 34.0 139.0 1010 0 2 -- Chart
1966 10 2 12 37.2 143.2 1008 0 2 -- Chart
1966 10 2 18 39.7 145.9 1008 0 2 -- Chart
1966 10 3 00 43.0 150.0 1006 0 2 -- Chart
1966 10 3 06 45.0 154.0 1002 0 2 -- Chart
1966 10 3 12 46.5 158.8 1002 0 2 -- Chart
1966 10 3 18 48.0 166.0 1000 0 2 -- Chart
1966 10 4 00 49.0 172.0 998 0 2 -- Chart
1966 10 4 06 50.0 178.0 994 0 2 -- Chart
1966 10 4 12 52.0 183.9 994 0 2 -- Chart
Japan Meteorological Agency Best Track Data | Correction Date : 1991-07-16
< Typhoon 196627 1966 Season Typhoon 196629 >

Help